Time;durP1;ratioP1;P1;durP2;ratioP2;P2;SDS_P1;SDS_P2;PMS_P1;PMS_P2;Temp;Humidity;BMP_temperature;BMP_pressure;BME280_temperature;BME280_humidity;BME280_pressure;Samples;Min_cycle;Max_cycle;Signal;HPM_P1;HPM_P2
2021/12/09 00:01:21;;;;;;;24.57;15.83;;;0.80;99.90;;;;;;5008534;28;20256;-70
2021/12/09 00:03:51;;;;;;;27.80;17.17;;;0.80;99.90;;;;;;5008825;28;20190;-70
2021/12/09 00:06:21;;;;;;;26.30;17.23;;;0.80;99.90;;;;;;5008449;28;20205;-70
2021/12/09 00:08:48;;;;;;;29.23;17.97;;;0.80;99.90;;;;;;5008813;28;20256;-70
2021/12/09 00:11:15;;;;;;;28.63;18.20;;;0.90;99.90;;;;;;5008433;28;20699;-70
2021/12/09 00:13:41;;;;;;;26.97;17.47;;;0.90;99.90;;;;;;5008520;28;20209;-70
2021/12/09 00:16:18;;;;;;;28.77;17.50;;;0.90;99.90;;;;;;5008211;28;20742;-71
2021/12/09 00:18:45;;;;;;;30.30;17.70;;;0.80;99.90;;;;;;5008660;28;20205;-71
2021/12/09 00:21:16;;;;;;;28.00;17.93;;;0.80;99.90;;;;;;5008359;28;20241;-70
2021/12/09 00:23:42;;;;;;;30.40;17.93;;;0.80;99.90;;;;;;5008459;28;20209;-71
2021/12/09 00:26:15;;;;;;;28.60;17.97;;;0.80;99.90;;;;;;5008471;28;20229;-71
2021/12/09 00:28:42;;;;;;;31.30;18.10;;;0.80;99.90;;;;;;5008403;28;20239;-70
2021/12/09 00:31:17;;;;;;;28.50;17.00;;;0.80;99.90;;;;;;5007383;28;20310;-70
2021/12/09 00:33:45;;;;;;;29.43;17.50;;;0.70;99.90;;;;;;5008485;28;20216;-70
2021/12/09 00:36:27;;;;;;;25.67;16.50;;;0.70;99.90;;;;;;5008181;28;20630;-71
2021/12/09 00:38:54;;;;;;;27.60;17.43;;;0.70;99.90;;;;;;5008350;28;20193;-71
2021/12/09 00:41:21;;;;;;;26.87;16.60;;;0.70;99.90;;;;;;5008049;28;20247;-71
2021/12/09 00:43:48;;;;;;;26.77;16.93;;;0.80;99.90;;;;;;5008222;28;20209;-71
2021/12/09 00:46:18;;;;;;;29.50;17.53;;;0.80;99.90;;;;;;5007960;28;20206;-70
2021/12/09 00:48:45;;;;;;;27.67;17.50;;;0.70;99.90;;;;;;5008135;28;20267;-70
2021/12/09 00:51:15;;;;;;;29.97;18.43;;;0.60;99.90;;;;;;5007952;28;20220;-71
2021/12/09 00:53:43;;;;;;;31.40;18.00;;;0.70;99.90;;;;;;5007632;28;20272;-71
2021/12/09 00:56:16;;;;;;;29.33;17.57;;;0.60;99.90;;;;;;5007976;28;20229;-71
2021/12/09 00:58:44;;;;;;;26.93;17.47;;;0.60;99.90;;;;;;5008181;28;20272;-71
2021/12/09 01:01:15;;;;;;;27.53;18.40;;;0.60;99.90;;;;;;5007656;28;20233;-71
2021/12/09 01:03:42;;;;;;;29.73;18.53;;;0.50;99.90;;;;;;5007524;28;20817;-71
2021/12/09 01:06:12;;;;;;;28.43;17.90;;;0.60;99.90;;;;;;5008311;28;20259;-72
2021/12/09 01:08:39;;;;;;;29.30;18.33;;;0.50;99.90;;;;;;5007887;28;20603;-72
2021/12/09 01:11:14;;;;;;;29.67;18.30;;;0.60;99.90;;;;;;5008047;28;20210;-71
2021/12/09 01:13:41;;;;;;;27.27;17.27;;;0.60;99.90;;;;;;5007757;28;20319;-72
2021/12/09 01:16:09;;;;;;;31.83;18.80;;;0.60;99.90;;;;;;5007756;28;20710;-71
2021/12/09 01:18:38;;;;;;;26.67;17.17;;;0.60;99.90;;;;;;5007743;28;20213;-71
2021/12/09 01:21:11;;;;;;;28.43;17.63;;;0.60;99.90;;;;;;5007578;28;20590;-71
2021/12/09 01:23:38;;;;;;;30.97;18.03;;;0.60;99.90;;;;;;5007857;28;20212;-70
2021/12/09 01:26:12;;;;;;;28.40;17.70;;;0.60;99.90;;;;;;5007993;28;20213;-70
2021/12/09 01:28:46;;;;;;;32.00;18.67;;;0.70;99.90;;;;;;5007791;28;20729;-71
2021/12/09 01:31:21;;;;;;;29.40;17.97;;;0.70;99.90;;;;;;5008053;28;20320;-71
2021/12/09 01:33:49;;;;;;;30.57;18.77;;;0.70;99.90;;;;;;5007820;28;20280;-71
2021/12/09 01:36:16;;;;;;;28.33;18.03;;;0.70;99.90;;;;;;5007794;28;20206;-71
2021/12/09 01:38:43;;;;;;;31.40;18.83;;;0.70;99.90;;;;;;5007768;28;20288;-71
2021/12/09 01:41:09;;;;;;;32.10;19.13;;;0.70;99.90;;;;;;5008074;28;20236;-69
2021/12/09 01:43:38;;;;;;;34.13;19.47;;;0.70;99.90;;;;;;5011171;28;20436;-69
2021/12/09 01:46:12;;;;;;;30.03;19.37;;;0.70;99.90;;;;;;5010900;28;20210;-69
2021/12/09 01:48:41;;;;;;;33.30;20.17;;;0.70;99.90;;;;;;5011056;28;20267;-69
2021/12/09 01:51:08;;;;;;;32.50;19.60;;;0.70;99.90;;;;;;5010896;28;20798;-69
2021/12/09 01:53:36;;;;;;;35.80;18.70;;;0.70;99.90;;;;;;5010459;28;20245;-69
2021/12/09 01:56:10;;;;;;;32.17;19.83;;;0.70;99.90;;;;;;5010971;28;20288;-69
2021/12/09 01:58:38;;;;;;;33.10;19.10;;;0.80;99.90;;;;;;5010895;28;20255;-69
2021/12/09 02:01:11;;;;;;;30.27;18.73;;;0.80;99.90;;;;;;5010432;28;20670;-69
2021/12/09 02:03:37;;;;;;;32.53;19.47;;;0.80;99.90;;;;;;5010750;28;20201;-69
2021/12/09 02:06:11;;;;;;;30.50;18.13;;;0.80;99.90;;;;;;5010934;28;20217;-69
2021/12/09 02:08:38;;;;;;;33.90;18.83;;;0.80;99.90;;;;;;5010768;28;20643;-69
2021/12/09 02:11:11;;;;;;;31.23;18.90;;;0.80;99.90;;;;;;5010759;28;20217;-69
2021/12/09 02:13:39;;;;;;;34.13;18.80;;;0.80;99.90;;;;;;5011836;28;20647;-70
2021/12/09 02:16:09;;;;;;;32.07;18.53;;;0.70;99.90;;;;;;5030438;28;20258;-71
2021/12/09 02:18:36;;;;;;;30.43;18.70;;;0.70;99.90;;;;;;5030272;28;20249;-71
2021/12/09 02:21:16;;;;;;;33.30;19.53;;;0.70;99.90;;;;;;5030197;28;20331;-71
2021/12/09 02:23:44;;;;;;;30.47;18.07;;;0.70;99.90;;;;;;5030378;28;20222;-71
2021/12/09 02:26:11;;;;;;;31.87;18.93;;;0.70;99.90;;;;;;5030089;28;20598;-71
2021/12/09 02:28:38;;;;;;;34.30;20.27;;;0.70;99.90;;;;;;5030111;28;20709;-71
2021/12/09 02:31:11;;;;;;;32.00;19.20;;;0.70;99.90;;;;;;5029582;28;20289;-71
2021/12/09 02:33:38;;;;;;;32.63;19.57;;;0.70;99.90;;;;;;5030053;28;20331;-71
2021/12/09 02:36:08;;;;;;;30.23;19.73;;;0.70;99.90;;;;;;5030189;28;20209;-71
2021/12/09 02:38:43;;;;;;;32.87;19.37;;;0.70;99.90;;;;;;5029451;28;20894;-71
2021/12/09 02:41:17;;;;;;;34.67;20.17;;;0.70;99.90;;;;;;5030015;28;20201;-71
2021/12/09 02:43:45;;;;;;;31.07;19.27;;;0.70;99.90;;;;;;5029926;28;20198;-71
2021/12/09 02:46:12;;;;;;;34.37;19.87;;;0.70;99.90;;;;;;5029833;28;20205;-71
2021/12/09 02:48:39;;;;;;;31.03;20.20;;;0.70;99.90;;;;;;5029753;28;20205;-71
2021/12/09 02:51:09;;;;;;;33.57;20.27;;;0.60;99.90;;;;;;5029856;28;20219;-71
2021/12/09 02:53:37;;;;;;;31.23;19.57;;;0.60;99.90;;;;;;5028379;28;20280;-71
2021/12/09 02:56:10;;;;;;;38.03;20.20;;;0.50;99.90;;;;;;5029350;28;20638;-71
2021/12/09 02:58:38;;;;;;;34.77;20.07;;;0.60;99.90;;;;;;5029626;28;20213;-71
2021/12/09 03:01:15;;;;;;;34.60;20.37;;;0.60;99.90;;;;;;5029540;28;20205;-71
2021/12/09 03:03:50;;;;;;;35.30;19.83;;;0.60;99.90;;;;;;5029544;28;20205;-71
2021/12/09 03:06:18;;;;;;;34.33;20.77;;;0.60;99.90;;;;;;5029767;28;20204;-71
2021/12/09 03:08:46;;;;;;;33.37;19.43;;;0.60;99.90;;;;;;5029488;28;20220;-70
2021/12/09 03:11:16;;;;;;;36.07;20.70;;;0.60;99.90;;;;;;5029549;28;20274;-70
2021/12/09 03:13:44;;;;;;;35.40;20.50;;;0.60;99.90;;;;;;5029320;28;20240;-71
2021/12/09 03:16:11;;;;;;;32.73;19.97;;;0.60;99.90;;;;;;5029210;28;20208;-70
2021/12/09 03:18:42;;;;;;;36.60;21.17;;;0.60;99.90;;;;;;5029302;28;20217;-70
2021/12/09 03:21:16;;;;;;;37.23;20.83;;;0.60;99.90;;;;;;5029245;28;20213;-71
2021/12/09 03:23:43;;;;;;;33.20;20.70;;;0.60;99.90;;;;;;5028990;28;20243;-70
2021/12/09 03:26:16;;;;;;;33.90;20.13;;;0.60;99.90;;;;;;5029013;28;20212;-70
2021/12/09 03:28:44;;;;;;;33.77;20.13;;;0.60;99.90;;;;;;5028918;28;20212;-69
2021/12/09 03:31:13;;;;;;;31.90;19.90;;;0.50;99.90;;;;;;5028902;28;20271;-69
2021/12/09 03:33:40;;;;;;;34.37;20.73;;;0.50;99.90;;;;;;5028258;28;20205;-70
2021/12/09 03:36:13;;;;;;;33.70;20.10;;;0.50;99.90;;;;;;5028173;28;20216;-70
2021/12/09 03:38:41;;;;;;;36.33;21.17;;;0.50;99.90;;;;;;5028694;28;20205;-71
2021/12/09 03:41:15;;;;;;;37.80;21.73;;;0.60;99.90;;;;;;5028957;28;20204;-71
2021/12/09 03:43:41;;;;;;;38.03;21.60;;;0.50;99.90;;;;;;5028604;28;20233;-70
2021/12/09 03:46:11;;;;;;;36.50;20.57;;;0.50;99.90;;;;;;5028690;28;20270;-71
2021/12/09 03:48:38;;;;;;;33.80;20.20;;;0.50;99.90;;;;;;5028633;28;20213;-70
2021/12/09 03:51:13;;;;;;;36.87;20.57;;;0.50;99.90;;;;;;5028763;28;20271;-71
2021/12/09 03:53:40;;;;;;;33.77;19.97;;;0.50;99.90;;;;;;5028200;28;20240;-70
2021/12/09 03:56:33;;;;;;;32.97;19.73;;;0.50;99.90;;;;;;5028490;28;20232;-70
2021/12/09 03:59:00;;;;;;;37.77;21.30;;;0.60;99.90;;;;;;5028294;28;20671;-70
2021/12/09 04:01:27;;;;;;;34.00;20.00;;;0.50;99.90;;;;;;5028415;28;20266;-74
2021/12/09 04:03:55;;;;;;;33.07;20.27;;;0.50;99.90;;;;;;5027985;28;20944;-70
2021/12/09 04:06:22;;;;;;;33.63;19.83;;;0.50;99.90;;;;;;5028128;28;20474;-69
2021/12/09 04:08:49;;;;;;;35.43;20.73;;;0.40;99.90;;;;;;5013488;28;20272;-69
2021/12/09 04:11:25;;;;;;;34.43;20.40;;;0.40;99.90;;;;;;5005055;28;20214;-69
2021/12/09 04:13:54;;;;;;;37.47;20.60;;;0.50;99.90;;;;;;5004903;28;20272;-70
2021/12/09 04:16:26;;;;;;;35.40;20.23;;;0.50;99.90;;;;;;5008404;28;20668;-69
2021/12/09 04:18:53;;;;;;;36.63;21.23;;;0.50;99.90;;;;;;5005353;28;20259;-70
2021/12/09 04:21:23;;;;;;;34.53;20.67;;;0.60;99.90;;;;;;5004799;28;20213;-69
2021/12/09 04:23:50;;;;;;;36.43;20.77;;;0.50;99.90;;;;;;5004927;28;20233;-68
2021/12/09 04:26:23;;;;;;;34.40;20.50;;;0.60;99.90;;;;;;5004869;28;20213;-69
2021/12/09 04:28:50;;;;;;;36.80;21.67;;;0.60;99.90;;;;;;5004821;28;20220;-70
2021/12/09 04:31:25;;;;;;;34.83;20.23;;;0.60;99.90;;;;;;5004526;28;20282;-70
2021/12/09 04:33:52;;;;;;;37.13;21.33;;;0.60;99.90;;;;;;5004521;28;20666;-70
2021/12/09 04:36:25;;;;;;;34.17;21.10;;;0.60;99.90;;;;;;5003495;28;20232;-70
2021/12/09 04:38:53;;;;;;;36.10;20.60;;;0.60;99.90;;;;;;5004330;28;20566;-70
2021/12/09 04:41:29;;;;;;;32.80;20.47;;;0.60;99.90;;;;;;5004799;28;20210;-70
2021/12/09 04:43:55;;;;;;;35.70;20.87;;;0.60;99.90;;;;;;5004442;28;20233;-70
2021/12/09 04:46:23;;;;;;;35.73;21.07;;;0.60;99.90;;;;;;5004445;28;20310;-70
2021/12/09 04:48:50;;;;;;;32.10;20.53;;;0.60;99.90;;;;;;5004990;28;20217;-70
2021/12/09 04:51:23;;;;;;;36.60;21.30;;;0.60;99.90;;;;;;5004412;28;20229;-70
2021/12/09 04:53:49;;;;;;;35.70;21.13;;;0.60;99.90;;;;;;5004426;28;20264;-70
2021/12/09 04:56:19;;;;;;;34.03;21.20;;;0.60;99.90;;;;;;5004482;28;20209;-70
2021/12/09 04:58:46;;;;;;;35.17;21.40;;;0.60;99.90;;;;;;5004596;28;20248;-70
2021/12/09 05:01:26;;;;;;;35.97;21.10;;;0.60;99.90;;;;;;5004727;28;20480;-67
2021/12/09 05:03:53;;;;;;;35.60;21.20;;;0.60;99.90;;;;;;5008379;28;20233;-69
2021/12/09 05:06:29;;;;;;;36.83;21.90;;;0.60;99.90;;;;;;5027431;28;20266;-69
2021/12/09 05:08:56;;;;;;;34.20;20.67;;;0.60;99.90;;;;;;5027100;28;20199;-68
2021/12/09 05:11:47;;;;;;;36.77;21.30;;;0.60;99.90;;;;;;5026869;28;20215;-68
2021/12/09 05:14:15;;;;;;;39.50;21.40;;;0.60;99.90;;;;;;5027191;28;20588;-69
2021/12/09 05:16:43;;;;;;;33.80;20.70;;;0.60;99.90;;;;;;5028378;28;20234;-69
2021/12/09 05:19:10;;;;;;;38.30;21.33;;;0.60;99.90;;;;;;5031386;28;20292;-68
2021/12/09 05:21:39;;;;;;;34.90;21.47;;;0.60;99.90;;;;;;5031083;28;20204;-68
2021/12/09 05:24:06;;;;;;;34.73;20.83;;;0.60;99.90;;;;;;5031144;28;20247;-68
2021/12/09 05:26:34;;;;;;;35.47;20.13;;;0.60;99.90;;;;;;5031085;28;20263;-69
2021/12/09 05:29:01;;;;;;;33.00;20.57;;;0.60;99.90;;;;;;5030863;28;20219;-69
2021/12/09 05:34:18;;;;;;;33.17;19.63;;;0.60;99.90;;;;;;5030671;28;20303;-68
2021/12/09 05:36:44;;;;;;;32.87;20.40;;;0.60;99.90;;;;;;5031064;28;20553;-68
2021/12/09 05:39:13;;;;;;;35.20;21.47;;;0.60;99.90;;;;;;5029812;28;20211;-68
2021/12/09 05:41:40;;;;;;;32.87;19.70;;;0.60;99.90;;;;;;5029774;28;20204;-68
2021/12/09 05:44:08;;;;;;;33.73;20.27;;;0.60;99.90;;;;;;5027452;28;20271;-69
2021/12/09 05:46:37;;;;;;;33.40;19.13;;;0.60;99.90;;;;;;5029559;28;20259;-69
2021/12/09 05:49:04;;;;;;;31.50;19.60;;;0.60;99.90;;;;;;5029854;28;20204;-68
2021/12/09 05:51:33;;;;;;;32.90;20.17;;;0.60;99.90;;;;;;5028709;28;20289;-69
2021/12/09 05:54:00;;;;;;;34.10;19.67;;;0.60;99.90;;;;;;5029768;28;20266;-68
2021/12/09 05:56:27;;;;;;;30.73;19.33;;;0.60;99.90;;;;;;5027056;28;20656;-68
2021/12/09 05:58:53;;;;;;;33.50;19.60;;;0.60;99.90;;;;;;5029799;28;20614;-68
2021/12/09 06:01:27;;;;;;;34.80;20.37;;;0.60;99.90;;;;;;5029426;28;20205;-68
2021/12/09 06:03:53;;;;;;;33.87;21.70;;;0.60;99.90;;;;;;5027756;28;20618;-68
2021/12/09 06:06:20;;;;;;;35.63;20.93;;;0.50;99.90;;;;;;5029189;28;20254;-69
2021/12/09 06:08:49;;;;;;;35.13;20.63;;;0.50;99.90;;;;;;5021237;28;20731;-68
2021/12/09 06:11:19;;;;;;;37.80;21.30;;;0.50;99.90;;;;;;5029653;28;20237;-68
2021/12/09 06:13:47;;;;;;;36.13;20.77;;;0.50;99.90;;;;;;5029298;28;20275;-68
2021/12/09 06:16:29;;;;;;;39.23;21.77;;;0.50;99.90;;;;;;5029090;28;20212;-68
2021/12/09 06:18:56;;;;;;;33.10;19.60;;;0.50;99.90;;;;;;5027638;28;20197;-68
2021/12/09 06:21:29;;;;;;;34.50;20.20;;;0.50;99.90;;;;;;5029289;28;20197;-68
2021/12/09 06:24:00;;;;;;;31.97;19.77;;;0.60;99.90;;;;;;5029183;28;20314;-68
2021/12/09 06:26:28;;;;;;;34.23;20.53;;;0.50;99.90;;;;;;5026511;28;20185;-68
2021/12/09 06:28:55;;;;;;;33.23;20.43;;;0.50;99.90;;;;;;5027702;28;20772;-68
2021/12/09 06:31:33;;;;;;;33.67;20.30;;;0.50;99.90;;;;;;5028669;28;20801;-68
2021/12/09 06:34:00;;;;;;;33.90;20.67;;;0.50;99.90;;;;;;5028984;28;20233;-68
2021/12/09 06:36:43;;;;;;;32.83;19.43;;;0.60;99.90;;;;;;5026135;28;20721;-68
2021/12/09 06:39:12;;;;;;;33.10;19.57;;;0.50;99.90;;;;;;5026774;28;20251;-68
2021/12/09 06:41:39;;;;;;;32.50;20.30;;;0.60;99.90;;;;;;5028882;28;20276;-68
2021/12/09 06:44:07;;;;;;;33.53;19.70;;;0.60;99.90;;;;;;5028740;28;20270;-68
2021/12/09 06:46:35;;;;;;;32.93;19.40;;;0.60;99.90;;;;;;5028637;28;20203;-68
2021/12/09 06:49:02;;;;;;;32.80;20.37;;;0.60;99.90;;;;;;5026914;28;20193;-68
2021/12/09 06:51:29;;;;;;;34.63;20.67;;;0.60;99.90;;;;;;5020310;28;20217;-68
2021/12/09 06:53:57;;;;;;;32.63;20.27;;;0.60;99.90;;;;;;5027228;28;20221;-68
2021/12/09 06:56:27;;;;;;;33.77;20.07;;;0.60;99.90;;;;;;5028749;28;20228;-68
2021/12/09 06:58:54;;;;;;;36.37;22.03;;;0.60;99.90;;;;;;5028891;28;20259;-68
2021/12/09 07:01:37;;;;;;;33.90;21.67;;;0.60;99.90;;;;;;5028369;28;20197;-68
2021/12/09 07:04:05;;;;;;;34.67;20.47;;;0.60;99.90;;;;;;5027555;28;20228;-68
2021/12/09 07:06:31;;;;;;;37.27;21.90;;;0.50;99.90;;;;;;5028721;28;20204;-68
2021/12/09 07:09:00;;;;;;;37.30;20.90;;;0.50;99.90;;;;;;5028767;28;20266;-68
2021/12/09 07:11:29;;;;;;;34.77;20.67;;;0.50;99.90;;;;;;5028526;28;20251;-68
2021/12/09 07:13:56;;;;;;;36.70;21.73;;;0.50;99.90;;;;;;5028831;28;20333;-68
2021/12/09 07:16:26;;;;;;;35.53;21.70;;;0.50;99.90;;;;;;5028586;28;20213;-68
2021/12/09 07:18:52;;;;;;;37.23;21.20;;;0.50;99.90;;;;;;5028385;28;20259;-68
2021/12/09 07:21:23;;;;;;;34.47;20.93;;;0.60;99.90;;;;;;5028350;28;20259;-68
2021/12/09 07:23:56;;;;;;;43.63;22.80;;;0.60;99.90;;;;;;5028551;28;20279;-68
2021/12/09 07:26:42;;;;;;;36.93;22.23;;;0.60;99.90;;;;;;5028342;28;20255;-68
2021/12/09 07:29:09;;;;;;;36.50;21.20;;;0.60;99.90;;;;;;5028434;28;20232;-68
2021/12/09 07:31:36;;;;;;;41.30;22.83;;;0.60;99.90;;;;;;5028377;28;20216;-68
2021/12/09 07:34:03;;;;;;;37.93;21.60;;;0.50;99.90;;;;;;5028395;28;20216;-68
2021/12/09 07:36:29;;;;;;;42.40;22.60;;;0.60;99.90;;;;;;5028456;28;20208;-68
2021/12/09 07:38:56;;;;;;;36.80;21.90;;;0.50;99.90;;;;;;5028394;28;20262;-68
2021/12/09 07:41:24;;;;;;;38.13;21.83;;;0.50;99.90;;;;;;5028629;28;20710;-68
2021/12/09 07:43:52;;;;;;;39.53;22.83;;;0.50;99.90;;;;;;5028813;28;20243;-68
2021/12/09 07:46:31;;;;;;;37.90;22.57;;;0.50;99.90;;;;;;5028580;28;20209;-68
2021/12/09 07:48:58;;;;;;;45.53;22.00;;;0.50;99.90;;;;;;5028416;28;20196;-68
2021/12/09 07:51:25;;;;;;;42.03;24.57;;;0.60;99.90;;;;;;5027930;28;20233;-68
2021/12/09 07:53:52;;;;;;;39.03;22.70;;;0.60;99.90;;;;;;5028553;28;20282;-68
2021/12/09 07:56:28;;;;;;;39.87;23.30;;;0.70;99.90;;;;;;5028413;28;20209;-68
2021/12/09 07:58:55;;;;;;;41.33;22.43;;;0.70;99.90;;;;;;5028461;28;20238;-68
2021/12/09 08:01:45;;;;;;;38.73;21.83;;;0.70;99.90;;;;;;5028174;28;20262;-68
2021/12/09 08:04:14;;;;;;;36.80;22.00;;;0.70;99.90;;;;;;5028462;28;20236;-68
2021/12/09 08:06:41;;;;;;;40.00;22.57;;;0.70;99.90;;;;;;5028101;28;20208;-68
2021/12/09 08:09:08;;;;;;;43.47;22.50;;;0.70;99.90;;;;;;5028167;28;20205;-68
2021/12/09 08:11:37;;;;;;;41.50;22.77;;;0.80;99.90;;;;;;5027946;28;20214;-68
2021/12/09 08:14:11;;;;;;;41.40;22.63;;;0.80;99.90;;;;;;5028067;28;20674;-68
2021/12/09 08:16:39;;;;;;;40.53;24.40;;;0.80;99.90;;;;;;5027950;28;20201;-69
2021/12/09 08:19:06;;;;;;;37.63;22.67;;;0.80;99.90;;;;;;5028338;28;20228;-68
2021/12/09 08:21:37;;;;;;;39.43;22.13;;;0.70;99.90;;;;;;5027934;28;20307;-68
2021/12/09 08:24:05;;;;;;;40.67;23.87;;;0.70;99.90;;;;;;5027772;28;20320;-68
2021/12/09 08:26:32;;;;;;;41.27;23.10;;;0.70;99.90;;;;;;5027803;28;20286;-68
2021/12/09 08:28:59;;;;;;;40.67;24.27;;;0.70;99.90;;;;;;5028083;28;20244;-68
2021/12/09 08:31:29;;;;;;;39.50;23.20;;;0.70;99.90;;;;;;5028013;28;20577;-68
2021/12/09 08:33:56;;;;;;;38.47;24.07;;;0.70;99.90;;;;;;5028097;28;20240;-67
2021/12/09 08:36:26;;;;;;;40.13;24.00;;;0.60;99.90;;;;;;5027360;28;20734;-68
2021/12/09 08:38:53;;;;;;;39.90;22.50;;;0.60;99.90;;;;;;5024210;28;20940;-68
2021/12/09 08:41:26;;;;;;;43.00;23.80;;;0.60;99.90;;;;;;5026858;28;20204;-68
2021/12/09 08:43:53;;;;;;;42.73;23.20;;;0.60;99.90;;;;;;5024674;28;20221;-68
2021/12/09 08:46:27;;;;;;;41.13;23.47;;;0.60;99.90;;;;;;5026728;28;20205;-68
2021/12/09 08:48:56;;;;;;;41.80;23.30;;;0.60;99.90;;;;;;5024810;28;20262;-68
2021/12/09 08:51:25;;;;;;;39.50;22.90;;;0.60;99.90;;;;;;5027407;28;20311;-68
2021/12/09 08:53:53;;;;;;;42.20;23.60;;;0.60;99.90;;;;;;5028412;28;20577;-68
2021/12/09 08:56:20;;;;;;;39.33;23.50;;;0.60;99.90;;;;;;5030989;28;20204;-68
2021/12/09 08:58:46;;;;;;;39.73;23.13;;;0.70;99.90;;;;;;5030693;28;20249;-68
2021/12/09 09:01:27;;;;;;;39.93;23.50;;;0.70;99.90;;;;;;5030683;28;20203;-68
2021/12/09 09:03:53;;;;;;;40.83;23.27;;;0.70;99.90;;;;;;5028583;28;20229;-68
2021/12/09 09:06:31;;;;;;;39.97;23.40;;;0.70;99.90;;;;;;5030452;28;20208;-68
2021/12/09 09:09:00;;;;;;;38.30;22.50;;;0.70;99.90;;;;;;5029053;28;20216;-68
2021/12/09 09:11:33;;;;;;;39.27;23.10;;;0.70;99.90;;;;;;5030481;28;20209;-68
2021/12/09 09:14:00;;;;;;;42.00;23.77;;;0.70;99.90;;;;;;5030448;28;20205;-68
2021/12/09 09:16:28;;;;;;;42.53;23.33;;;0.70;99.90;;;;;;5030424;28;20197;-68
2021/12/09 09:18:57;;;;;;;37.97;23.10;;;0.70;99.90;;;;;;5030444;28;20262;-68
2021/12/09 09:21:25;;;;;;;41.07;23.63;;;0.70;99.90;;;;;;5030003;28;20298;-69
2021/12/09 09:23:52;;;;;;;38.97;23.17;;;0.80;99.90;;;;;;5027605;28;20312;-68
2021/12/09 09:26:29;;;;;;;44.60;24.90;;;0.80;99.90;;;;;;5029301;28;20201;-68
2021/12/09 09:28:57;;;;;;;37.63;23.23;;;0.80;99.90;;;;;;5029485;28;20216;-68
2021/12/09 09:31:30;;;;;;;40.27;22.83;;;0.90;99.90;;;;;;5029703;28;20205;-68
2021/12/09 09:33:57;;;;;;;41.20;21.80;;;0.90;99.90;;;;;;5027961;28;20200;-68
2021/12/09 09:36:27;;;;;;;38.30;23.50;;;1.00;99.90;;;;;;5029415;28;20295;-68
2021/12/09 09:39:00;;;;;;;36.73;22.67;;;1.00;99.90;;;;;;5026391;28;20196;-68
2021/12/09 09:41:32;;;;;;;41.07;23.23;;;1.00;99.90;;;;;;5030116;28;20278;-68
2021/12/09 09:44:10;;;;;;;39.63;23.47;;;1.00;99.90;;;;;;5029967;28;20221;-68
2021/12/09 09:46:39;;;;;;;39.30;22.73;;;1.00;99.90;;;;;;5025640;28;20196;-68
2021/12/09 09:49:06;;;;;;;38.23;22.63;;;1.00;99.90;;;;;;5029704;28;20696;-68
2021/12/09 09:51:34;;;;;;;37.87;22.33;;;1.00;99.90;;;;;;5028865;28;20860;-68
2021/12/09 09:54:06;;;;;;;38.73;23.37;;;1.00;99.90;;;;;;5029072;28;20912;-68
2021/12/09 09:56:34;;;;;;;35.73;22.57;;;1.00;99.90;;;;;;5027197;28;20208;-68
2021/12/09 09:59:04;;;;;;;39.73;23.40;;;1.10;99.90;;;;;;5029839;28;20228;-68
2021/12/09 10:01:34;;;;;;;39.07;23.03;;;1.10;99.90;;;;;;5021521;28;20358;-68
2021/12/09 10:04:12;;;;;;;38.00;23.00;;;1.10;99.90;;;;;;5029331;28;20229;-68
2021/12/09 10:06:41;;;;;;;39.80;23.03;;;1.20;99.90;;;;;;5028196;28;20296;-68
2021/12/09 10:09:09;;;;;;;35.77;23.07;;;1.20;99.90;;;;;;5029457;28;20197;-68
2021/12/09 10:11:43;;;;;;;37.40;22.97;;;1.10;99.90;;;;;;5028946;28;20228;-68
2021/12/09 10:14:16;;;;;;;36.20;22.20;;;1.10;99.90;;;;;;5026918;28;20196;-68
2021/12/09 10:16:45;;;;;;;36.83;22.97;;;1.10;99.90;;;;;;5029560;28;20193;-68
2021/12/09 10:19:21;;;;;;;36.40;21.80;;;1.10;99.90;;;;;;5028783;28;20255;-68
2021/12/09 10:21:49;;;;;;;37.30;21.47;;;1.10;99.90;;;;;;5029077;28;20670;-68
2021/12/09 10:24:17;;;;;;;39.00;23.17;;;1.10;99.90;;;;;;5029554;28;20220;-69
2021/12/09 10:26:44;;;;;;;40.57;24.63;;;1.10;99.90;;;;;;5028894;28;20635;-69
2021/12/09 10:29:20;;;;;;;39.43;22.80;;;1.10;99.90;;;;;;5029183;28;20283;-68
2021/12/09 10:31:50;;;;;;;39.43;22.87;;;1.00;99.90;;;;;;5029193;28;20189;-68
2021/12/09 10:34:32;;;;;;;37.83;23.00;;;1.10;99.90;;;;;;5028471;28;20232;-69
2021/12/09 10:37:16;;;;;;;35.60;22.23;;;1.10;99.90;;;;;;5027591;28;20751;-68
2021/12/09 10:39:49;;;;;;;34.50;21.97;;;1.10;99.90;;;;;;5028954;28;20660;-68
2021/12/09 10:42:19;;;;;;;39.23;23.47;;;1.10;99.90;;;;;;5024804;28;20252;-68
2021/12/09 10:44:56;;;;;;;39.07;22.70;;;1.20;99.90;;;;;;5029024;28;20249;-68
2021/12/09 10:47:37;;;;;;;36.97;22.83;;;1.10;99.90;;;;;;5028730;28;20201;-68
2021/12/09 10:50:15;;;;;;;37.40;22.67;;;1.20;99.90;;;;;;5027894;28;20813;-68
2021/12/09 10:52:46;;;;;;;33.40;21.77;;;1.20;99.90;;;;;;5027077;28;20713;-68
2021/12/09 10:55:24;;;;;;;37.03;22.43;;;1.20;99.90;;;;;;5026446;28;20197;-68
2021/12/09 10:58:00;;;;;;;35.50;22.30;;;1.20;99.90;;;;;;5025873;28;20189;-68
2021/12/09 11:00:32;;;;;;;37.97;21.87;;;1.20;99.90;;;;;;5028648;28;20629;-69
2021/12/09 11:03:17;;;;;;;35.10;22.43;;;1.20;99.90;;;;;;5028303;28;20224;-68
2021/12/09 11:05:54;;;;;;;34.37;22.60;;;1.20;99.90;;;;;;5025449;28;20659;-68
2021/12/09 11:08:28;;;;;;;38.10;23.90;;;1.30;99.90;;;;;;5028605;28;20196;-68
2021/12/09 11:11:24;;;;;;;36.67;21.77;;;1.30;99.90;;;;;;5027457;28;20717;-68
2021/12/09 11:13:54;;;;;;;37.13;22.90;;;1.40;99.90;;;;;;5016662;28;20248;-68
2021/12/09 11:16:37;;;;;;;37.03;23.03;;;1.40;99.90;;;;;;5025459;28;20626;-68
2021/12/09 11:19:09;;;;;;;37.10;23.00;;;1.40;99.90;;;;;;5025545;28;20265;-68
2021/12/09 11:21:41;;;;;;;35.57;21.87;;;1.40;99.90;;;;;;5027781;28;20581;-68
2021/12/09 11:24:11;;;;;;;37.03;23.10;;;1.40;99.90;;;;;;5028066;28;20197;-68
2021/12/09 11:26:46;;;;;;;35.20;21.90;;;1.40;99.90;;;;;;5028051;28;20197;-68
2021/12/09 11:29:17;;;;;;;38.67;22.43;;;1.40;99.90;;;;;;5028043;28;20248;-68
2021/12/09 11:31:50;;;;;;;33.37;21.20;;;1.40;99.90;;;;;;5022862;28;20201;-68
2021/12/09 11:34:20;;;;;;;33.57;21.37;;;1.40;99.90;;;;;;5027902;28;20753;-68
2021/12/09 11:36:54;;;;;;;37.63;22.37;;;1.40;99.90;;;;;;5028107;28;20231;-68
2021/12/09 11:39:27;;;;;;;35.17;22.73;;;1.40;99.90;;;;;;5019479;28;20200;-68
2021/12/09 11:42:03;;;;;;;34.43;21.63;;;1.40;99.90;;;;;;5027875;28;20193;-68
2021/12/09 11:44:31;;;;;;;36.00;21.90;;;1.40;99.90;;;;;;5025476;28;20217;-68
2021/12/09 11:46:57;;;;;;;34.03;21.93;;;1.40;99.90;;;;;;5027353;28;20247;-68
2021/12/09 11:49:24;;;;;;;34.80;22.40;;;1.40;99.90;;;;;;5027325;28;20217;-68
2021/12/09 11:51:52;;;;;;;37.67;23.17;;;1.40;99.90;;;;;;5027277;28;20651;-68
2021/12/09 11:54:19;;;;;;;38.37;23.70;;;1.40;99.90;;;;;;5027855;28;20196;-68
2021/12/09 11:57:00;;;;;;;38.97;23.30;;;1.40;99.90;;;;;;5025077;28;20955;-68
2021/12/09 12:11:37;;;;;;;33.87;21.83;;;1.30;99.90;;;;;;5025195;28;20346;-68
2021/12/09 12:14:15;;;;;;;33.13;21.30;;;1.30;99.90;;;;;;5027129;28;20280;-68
2021/12/09 12:16:59;;;;;;;35.23;22.17;;;1.30;99.90;;;;;;5026991;28;20192;-68
2021/12/09 12:20:10;;;;;;;35.70;21.20;;;1.30;99.90;;;;;;5026983;28;20200;-68
2021/12/09 12:28:41;;;;;;;33.83;21.30;;;1.40;99.90;;;;;;5024448;28;20275;-68
2021/12/09 12:35:11;;;;;;;34.43;21.00;;;1.30;99.90;;;;;;5025664;28;21001;-68
2021/12/09 12:37:58;;;;;;;34.67;21.00;;;1.30;99.90;;;;;;5020397;28;20243;-68
2021/12/09 12:40:31;;;;;;;34.73;21.63;;;1.30;99.90;;;;;;5026871;28;20242;-68
2021/12/09 12:43:04;;;;;;;32.57;21.83;;;1.20;99.90;;;;;;5026867;28;20224;-68
2021/12/09 12:45:45;;;;;;;37.97;23.10;;;1.30;99.90;;;;;;5025025;28;20227;-68
2021/12/09 12:51:42;;;;;;;35.07;20.17;;;1.20;99.90;;;;;;5024864;28;20212;-69
2021/12/09 12:54:31;;;;;;;33.43;20.50;;;1.20;99.90;;;;;;5024890;28;20195;-68
2021/12/09 12:57:00;;;;;;;34.90;21.70;;;1.20;99.90;;;;;;5023339;28;20196;-70
2021/12/09 12:59:32;;;;;;;32.43;21.57;;;1.20;99.90;;;;;;5024109;28;20299;-68
2021/12/09 13:05:24;;;;;;;33.10;20.90;;;1.10;99.90;;;;;;5024631;28;20228;-68
2021/12/09 13:08:20;;;;;;;35.10;21.10;;;1.20;99.90;;;;;;5027327;28;20189;-68
2021/12/09 13:11:02;;;;;;;37.43;21.80;;;1.10;99.90;;;;;;5027508;28;20224;-68
2021/12/09 13:13:42;;;;;;;34.87;21.67;;;1.10;99.90;;;;;;5027498;28;20197;-69
2021/12/09 13:16:36;;;;;;;34.80;21.93;;;1.10;99.90;;;;;;5027473;28;20196;-68
2021/12/09 13:19:09;;;;;;;36.37;20.93;;;1.10;99.90;;;;;;5027685;28;20221;-69
2021/12/09 13:21:49;;;;;;;38.23;22.47;;;1.20;99.90;;;;;;5027462;28;20289;-68
2021/12/09 13:24:45;;;;;;;35.33;21.87;;;1.20;99.90;;;;;;5027783;28;20276;-68
2021/12/09 13:27:33;;;;;;;32.40;21.20;;;1.20;99.90;;;;;;5027188;28;20719;-68